sensor_id;sensor_type;location;lat;lon;timestamp;P1;durP1;ratioP1;P2;durP2;ratioP2
11328;SDS011;5719;42.714;23.732;2023-07-30T00:00:25;2.72;;;1.95;;
11328;SDS011;5719;42.714;23.732;2023-07-30T00:02:54;3.17;;;2.40;;
11328;SDS011;5719;42.714;23.732;2023-07-30T00:05:20;2.47;;;1.88;;
11328;SDS011;5719;42.714;23.732;2023-07-30T00:07:47;6.38;;;2.10;;
11328;SDS011;5719;42.714;23.732;2023-07-30T00:10:15;3.13;;;1.85;;
11328;SDS011;5719;42.714;23.732;2023-07-30T00:12:42;2.30;;;2.00;;
11328;SDS011;5719;42.714;23.732;2023-07-30T00:15:09;1.83;;;1.73;;
11328;SDS011;5719;42.714;23.732;2023-07-30T00:17:38;2.75;;;2.30;;
11328;SDS011;5719;42.714;23.732;2023-07-30T00:20:07;3.75;;;2.20;;
11328;SDS011;5719;42.714;23.732;2023-07-30T00:22:34;2.28;;;2.08;;
11328;SDS011;5719;42.714;23.732;2023-07-30T00:25:01;2.22;;;2.10;;
11328;SDS011;5719;42.714;23.732;2023-07-30T00:27:28;1.85;;;1.75;;
11328;SDS011;5719;42.714;23.732;2023-07-30T00:29:55;2.40;;;2.20;;
11328;SDS011;5719;42.714;23.732;2023-07-30T00:32:22;3.90;;;2.10;;
11328;SDS011;5719;42.714;23.732;2023-07-30T00:34:49;3.20;;;2.40;;
11328;SDS011;5719;42.714;23.732;2023-07-30T00:37:17;2.45;;;2.25;;
11328;SDS011;5719;42.714;23.732;2023-07-30T00:39:44;2.50;;;2.30;;
11328;SDS011;5719;42.714;23.732;2023-07-30T00:42:11;2.67;;;2.30;;
11328;SDS011;5719;42.714;23.732;2023-07-30T00:44:37;3.38;;;2.20;;
11328;SDS011;5719;42.714;23.732;2023-07-30T00:47:04;5.15;;;2.35;;
11328;SDS011;5719;42.714;23.732;2023-07-30T00:49:31;3.40;;;2.15;;
11328;SDS011;5719;42.714;23.732;2023-07-30T00:51:59;2.30;;;2.10;;
11328;SDS011;5719;42.714;23.732;2023-07-30T00:54:27;2.63;;;2.40;;
11328;SDS011;5719;42.714;23.732;2023-07-30T00:56:54;2.33;;;2.10;;
11328;SDS011;5719;42.714;23.732;2023-07-30T00:59:21;2.80;;;2.60;;
11328;SDS011;5719;42.714;23.732;2023-07-30T01:01:49;4.38;;;2.40;;
11328;SDS011;5719;42.714;23.732;2023-07-30T01:04:17;2.50;;;2.30;;
11328;SDS011;5719;42.714;23.732;2023-07-30T01:06:45;3.13;;;2.35;;
11328;SDS011;5719;42.714;23.732;2023-07-30T01:09:12;2.70;;;2.50;;
11328;SDS011;5719;42.714;23.732;2023-07-30T01:11:41;4.88;;;2.63;;
11328;SDS011;5719;42.714;23.732;2023-07-30T01:14:09;2.10;;;2.00;;
11328;SDS011;5719;42.714;23.732;2023-07-30T01:16:36;2.35;;;2.15;;
11328;SDS011;5719;42.714;23.732;2023-07-30T01:19:03;2.95;;;2.75;;
11328;SDS011;5719;42.714;23.732;2023-07-30T01:21:33;2.40;;;2.30;;
11328;SDS011;5719;42.714;23.732;2023-07-30T01:24:00;3.47;;;2.90;;
11328;SDS011;5719;42.714;23.732;2023-07-30T01:26:30;2.90;;;2.70;;
11328;SDS011;5719;42.714;23.732;2023-07-30T01:29:01;2.80;;;2.60;;
11328;SDS011;5719;42.714;23.732;2023-07-30T01:31:33;2.30;;;2.20;;
11328;SDS011;5719;42.714;23.732;2023-07-30T01:34:01;2.50;;;2.30;;
11328;SDS011;5719;42.714;23.732;2023-07-30T01:36:30;2.50;;;2.30;;
11328;SDS011;5719;42.714;23.732;2023-07-30T01:39:00;2.95;;;2.30;;
11328;SDS011;5719;42.714;23.732;2023-07-30T01:41:28;2.72;;;2.47;;
11328;SDS011;5719;42.714;23.732;2023-07-30T01:43:55;3.03;;;2.55;;
11328;SDS011;5719;42.714;23.732;2023-07-30T01:46:22;2.45;;;2.25;;
11328;SDS011;5719;42.714;23.732;2023-07-30T01:48:48;3.08;;;2.50;;
11328;SDS011;5719;42.714;23.732;2023-07-30T01:51:15;3.00;;;2.45;;
11328;SDS011;5719;42.714;23.732;2023-07-30T01:53:42;2.60;;;2.38;;
11328;SDS011;5719;42.714;23.732;2023-07-30T01:56:10;2.80;;;2.60;;
11328;SDS011;5719;42.714;23.732;2023-07-30T01:58:37;4.85;;;2.70;;
11328;SDS011;5719;42.714;23.732;2023-07-30T02:01:04;4.30;;;2.65;;
11328;SDS011;5719;42.714;23.732;2023-07-30T02:03:31;2.75;;;2.55;;
11328;SDS011;5719;42.714;23.732;2023-07-30T02:05:58;3.55;;;2.47;;
11328;SDS011;5719;42.714;23.732;2023-07-30T02:08:25;2.75;;;2.28;;
11328;SDS011;5719;42.714;23.732;2023-07-30T02:10:55;3.05;;;2.17;;
11328;SDS011;5719;42.714;23.732;2023-07-30T02:13:24;2.60;;;2.40;;
11328;SDS011;5719;42.714;23.732;2023-07-30T02:15:51;4.15;;;2.42;;
11328;SDS011;5719;42.714;23.732;2023-07-30T02:18:18;2.67;;;2.47;;
11328;SDS011;5719;42.714;23.732;2023-07-30T02:20:45;2.53;;;2.33;;
11328;SDS011;5719;42.714;23.732;2023-07-30T02:23:13;6.20;;;2.60;;
11328;SDS011;5719;42.714;23.732;2023-07-30T02:25:40;3.17;;;2.60;;
11328;SDS011;5719;42.714;23.732;2023-07-30T02:28:07;3.30;;;3.00;;
11328;SDS011;5719;42.714;23.732;2023-07-30T02:30:36;3.22;;;2.80;;
11328;SDS011;5719;42.714;23.732;2023-07-30T02:33:03;2.55;;;2.40;;
11328;SDS011;5719;42.714;23.732;2023-07-30T02:35:30;3.03;;;2.50;;
11328;SDS011;5719;42.714;23.732;2023-07-30T02:37:56;2.80;;;2.55;;
11328;SDS011;5719;42.714;23.732;2023-07-30T02:40:23;2.88;;;2.35;;
11328;SDS011;5719;42.714;23.732;2023-07-30T02:42:50;4.60;;;2.60;;
11328;SDS011;5719;42.714;23.732;2023-07-30T02:45:17;3.15;;;2.90;;
11328;SDS011;5719;42.714;23.732;2023-07-30T02:47:46;2.92;;;2.67;;
11328;SDS011;5719;42.714;23.732;2023-07-30T02:50:13;7.80;;;2.78;;
11328;SDS011;5719;42.714;23.732;2023-07-30T02:52:40;3.17;;;2.42;;
11328;SDS011;5719;42.714;23.732;2023-07-30T02:55:07;4.80;;;2.40;;
11328;SDS011;5719;42.714;23.732;2023-07-30T02:57:34;3.00;;;2.67;;
11328;SDS011;5719;42.714;23.732;2023-07-30T03:00:02;4.95;;;2.60;;
11328;SDS011;5719;42.714;23.732;2023-07-30T03:02:29;5.82;;;2.60;;
11328;SDS011;5719;42.714;23.732;2023-07-30T03:04:58;5.03;;;2.38;;
11328;SDS011;5719;42.714;23.732;2023-07-30T03:07:25;2.60;;;2.40;;
11328;SDS011;5719;42.714;23.732;2023-07-30T03:09:52;2.92;;;2.40;;
11328;SDS011;5719;42.714;23.732;2023-07-30T03:12:19;3.65;;;2.95;;
11328;SDS011;5719;42.714;23.732;2023-07-30T03:14:46;2.97;;;2.63;;
11328;SDS011;5719;42.714;23.732;2023-07-30T03:17:13;3.97;;;2.45;;
11328;SDS011;5719;42.714;23.732;2023-07-30T03:19:39;2.70;;;2.50;;
11328;SDS011;5719;42.714;23.732;2023-07-30T03:22:08;3.05;;;2.85;;
11328;SDS011;5719;42.714;23.732;2023-07-30T03:24:34;3.35;;;2.85;;
11328;SDS011;5719;42.714;23.732;2023-07-30T03:27:01;4.38;;;2.50;;
11328;SDS011;5719;42.714;23.732;2023-07-30T03:29:28;6.18;;;2.80;;
11328;SDS011;5719;42.714;23.732;2023-07-30T03:31:55;4.38;;;2.75;;
11328;SDS011;5719;42.714;23.732;2023-07-30T03:34:22;2.85;;;2.50;;
11328;SDS011;5719;42.714;23.732;2023-07-30T03:36:49;2.33;;;2.20;;
11328;SDS011;5719;42.714;23.732;2023-07-30T03:39:18;3.65;;;2.53;;
11328;SDS011;5719;42.714;23.732;2023-07-30T03:41:45;3.38;;;3.08;;
11328;SDS011;5719;42.714;23.732;2023-07-30T03:44:12;3.70;;;2.60;;
11328;SDS011;5719;42.714;23.732;2023-07-30T03:46:39;2.58;;;2.38;;
11328;SDS011;5719;42.714;23.732;2023-07-30T03:49:06;4.32;;;2.55;;
11328;SDS011;5719;42.714;23.732;2023-07-30T03:51:33;3.72;;;2.70;;
11328;SDS011;5719;42.714;23.732;2023-07-30T03:54:00;4.63;;;2.80;;
11328;SDS011;5719;42.714;23.732;2023-07-30T03:56:28;4.82;;;3.30;;
11328;SDS011;5719;42.714;23.732;2023-07-30T03:58:55;2.72;;;2.53;;
11328;SDS011;5719;42.714;23.732;2023-07-30T04:01:22;3.35;;;2.95;;
11328;SDS011;5719;42.714;23.732;2023-07-30T04:03:49;3.13;;;2.83;;
11328;SDS011;5719;42.714;23.732;2023-07-30T04:06:15;6.88;;;2.83;;
11328;SDS011;5719;42.714;23.732;2023-07-30T04:08:42;3.00;;;2.63;;
11328;SDS011;5719;42.714;23.732;2023-07-30T04:11:09;6.60;;;2.90;;
11328;SDS011;5719;42.714;23.732;2023-07-30T04:13:37;8.57;;;2.42;;
11328;SDS011;5719;42.714;23.732;2023-07-30T04:16:06;2.88;;;2.60;;
11328;SDS011;5719;42.714;23.732;2023-07-30T04:18:32;4.60;;;2.40;;
11328;SDS011;5719;42.714;23.732;2023-07-30T04:20:59;5.32;;;2.92;;
11328;SDS011;5719;42.714;23.732;2023-07-30T04:23:26;3.08;;;2.80;;
11328;SDS011;5719;42.714;23.732;2023-07-30T04:25:53;3.90;;;3.00;;
11328;SDS011;5719;42.714;23.732;2023-07-30T04:28:20;4.93;;;2.92;;
11328;SDS011;5719;42.714;23.732;2023-07-30T04:30:48;5.03;;;2.60;;
11328;SDS011;5719;42.714;23.732;2023-07-30T04:33:15;3.53;;;2.80;;
11328;SDS011;5719;42.714;23.732;2023-07-30T04:35:43;3.75;;;3.00;;
11328;SDS011;5719;42.714;23.732;2023-07-30T04:38:10;6.97;;;2.97;;
11328;SDS011;5719;42.714;23.732;2023-07-30T04:40:38;3.03;;;2.83;;
11328;SDS011;5719;42.714;23.732;2023-07-30T04:43:05;4.03;;;2.80;;
11328;SDS011;5719;42.714;23.732;2023-07-30T04:45:33;3.17;;;2.72;;
11328;SDS011;5719;42.714;23.732;2023-07-30T04:48:01;3.08;;;2.75;;
11328;SDS011;5719;42.714;23.732;2023-07-30T04:50:28;3.83;;;3.10;;
11328;SDS011;5719;42.714;23.732;2023-07-30T04:52:55;3.00;;;2.80;;
11328;SDS011;5719;42.714;23.732;2023-07-30T04:55:22;3.13;;;2.80;;
11328;SDS011;5719;42.714;23.732;2023-07-30T04:57:49;4.28;;;3.00;;
11328;SDS011;5719;42.714;23.732;2023-07-30T05:00:16;5.20;;;3.13;;
11328;SDS011;5719;42.714;23.732;2023-07-30T05:02:42;5.10;;;3.05;;
11328;SDS011;5719;42.714;23.732;2023-07-30T05:05:11;3.10;;;2.80;;
11328;SDS011;5719;42.714;23.732;2023-07-30T05:07:38;3.45;;;3.15;;
11328;SDS011;5719;42.714;23.732;2023-07-30T05:10:05;2.85;;;2.58;;
11328;SDS011;5719;42.714;23.732;2023-07-30T05:12:35;3.17;;;2.80;;
11328;SDS011;5719;42.714;23.732;2023-07-30T05:15:02;3.10;;;2.80;;
11328;SDS011;5719;42.714;23.732;2023-07-30T05:17:29;4.53;;;2.92;;
11328;SDS011;5719;42.714;23.732;2023-07-30T05:19:56;2.83;;;2.63;;
11328;SDS011;5719;42.714;23.732;2023-07-30T05:22:27;4.40;;;2.33;;
11328;SDS011;5719;42.714;23.732;2023-07-30T05:24:54;4.10;;;2.50;;
11328;SDS011;5719;42.714;23.732;2023-07-30T05:27:20;2.75;;;2.55;;
11328;SDS011;5719;42.714;23.732;2023-07-30T05:29:47;2.85;;;2.65;;
11328;SDS011;5719;42.714;23.732;2023-07-30T05:32:15;4.55;;;2.50;;
11328;SDS011;5719;42.714;23.732;2023-07-30T05:34:41;2.20;;;2.10;;
11328;SDS011;5719;42.714;23.732;2023-07-30T05:37:08;6.32;;;2.50;;
11328;SDS011;5719;42.714;23.732;2023-07-30T05:39:37;2.67;;;2.47;;
11328;SDS011;5719;42.714;23.732;2023-07-30T05:42:04;4.70;;;2.45;;
11328;SDS011;5719;42.714;23.732;2023-07-30T05:44:31;2.20;;;2.10;;
11328;SDS011;5719;42.714;23.732;2023-07-30T05:46:58;3.38;;;2.22;;
11328;SDS011;5719;42.714;23.732;2023-07-30T05:49:25;3.75;;;2.10;;
11328;SDS011;5719;42.714;23.732;2023-07-30T05:51:51;3.28;;;2.22;;
11328;SDS011;5719;42.714;23.732;2023-07-30T05:54:18;3.67;;;2.30;;
11328;SDS011;5719;42.714;23.732;2023-07-30T05:56:47;2.45;;;2.28;;
11328;SDS011;5719;42.714;23.732;2023-07-30T05:59:14;2.20;;;2.00;;
11328;SDS011;5719;42.714;23.732;2023-07-30T06:01:41;4.03;;;2.53;;
11328;SDS011;5719;42.714;23.732;2023-07-30T06:04:08;2.25;;;2.15;;
11328;SDS011;5719;42.714;23.732;2023-07-30T06:06:35;2.45;;;2.05;;
11328;SDS011;5719;42.714;23.732;2023-07-30T06:09:02;2.00;;;1.90;;
11328;SDS011;5719;42.714;23.732;2023-07-30T06:11:29;5.97;;;2.40;;
11328;SDS011;5719;42.714;23.732;2023-07-30T06:13:58;2.08;;;1.98;;
11328;SDS011;5719;42.714;23.732;2023-07-30T06:16:25;2.10;;;2.00;;
11328;SDS011;5719;42.714;23.732;2023-07-30T06:18:52;3.47;;;2.08;;
11328;SDS011;5719;42.714;23.732;2023-07-30T06:21:19;3.28;;;2.45;;
11328;SDS011;5719;42.714;23.732;2023-07-30T06:23:48;5.55;;;1.90;;
11328;SDS011;5719;42.714;23.732;2023-07-30T06:26:14;3.35;;;2.17;;
11328;SDS011;5719;42.714;23.732;2023-07-30T06:28:41;3.55;;;2.10;;
11328;SDS011;5719;42.714;23.732;2023-07-30T06:31:10;1.85;;;1.52;;
11328;SDS011;5719;42.714;23.732;2023-07-30T06:33:37;5.22;;;2.20;;
11328;SDS011;5719;42.714;23.732;2023-07-30T06:36:05;1.50;;;1.40;;
11328;SDS011;5719;42.714;23.732;2023-07-30T06:38:32;3.75;;;2.20;;
11328;SDS011;5719;42.714;23.732;2023-07-30T06:40:58;7.82;;;1.80;;
11328;SDS011;5719;42.714;23.732;2023-07-30T06:43:25;2.15;;;1.98;;
11328;SDS011;5719;42.714;23.732;2023-07-30T06:45:52;4.22;;;2.03;;
11328;SDS011;5719;42.714;23.732;2023-07-30T06:48:21;3.78;;;2.05;;
11328;SDS011;5719;42.714;23.732;2023-07-30T06:50:48;1.77;;;1.67;;
11328;SDS011;5719;42.714;23.732;2023-07-30T06:53:15;4.18;;;1.83;;
11328;SDS011;5719;42.714;23.732;2023-07-30T06:55:42;2.25;;;1.70;;
11328;SDS011;5719;42.714;23.732;2023-07-30T06:58:09;2.08;;;1.88;;
11328;SDS011;5719;42.714;23.732;2023-07-30T07:00:36;3.30;;;2.00;;
11328;SDS011;5719;42.714;23.732;2023-07-30T07:03:03;1.88;;;1.77;;
11328;SDS011;5719;42.714;23.732;2023-07-30T07:05:31;4.93;;;1.88;;
11328;SDS011;5719;42.714;23.732;2023-07-30T07:07:58;2.60;;;1.67;;
11328;SDS011;5719;42.714;23.732;2023-07-30T07:10:25;3.08;;;1.83;;
11328;SDS011;5719;42.714;23.732;2023-07-30T07:12:52;3.75;;;1.70;;
11328;SDS011;5719;42.714;23.732;2023-07-30T07:15:19;2.15;;;1.50;;
11328;SDS011;5719;42.714;23.732;2023-07-30T07:17:46;8.70;;;2.00;;
11328;SDS011;5719;42.714;23.732;2023-07-30T07:20:13;3.33;;;1.60;;
11328;SDS011;5719;42.714;23.732;2023-07-30T07:22:41;5.28;;;2.08;;
11328;SDS011;5719;42.714;23.732;2023-07-30T07:25:08;1.60;;;1.50;;
11328;SDS011;5719;42.714;23.732;2023-07-30T07:27:35;1.98;;;1.88;;
11328;SDS011;5719;42.714;23.732;2023-07-30T07:30:02;2.67;;;1.80;;
11328;SDS011;5719;42.714;23.732;2023-07-30T07:32:30;1.85;;;1.70;;
11328;SDS011;5719;42.714;23.732;2023-07-30T07:35:03;4.97;;;2.17;;
11328;SDS011;5719;42.714;23.732;2023-07-30T07:37:31;2.90;;;1.80;;
11328;SDS011;5719;42.714;23.732;2023-07-30T07:40:00;3.17;;;2.00;;
11328;SDS011;5719;42.714;23.732;2023-07-30T07:42:28;3.67;;;1.80;;
11328;SDS011;5719;42.714;23.732;2023-07-30T07:44:55;1.85;;;1.75;;
11328;SDS011;5719;42.714;23.732;2023-07-30T07:47:22;3.83;;;1.98;;
11328;SDS011;5719;42.714;23.732;2023-07-30T07:49:49;3.70;;;2.10;;
11328;SDS011;5719;42.714;23.732;2023-07-30T07:52:16;1.90;;;1.80;;
11328;SDS011;5719;42.714;23.732;2023-07-30T07:54:45;3.33;;;2.00;;
11328;SDS011;5719;42.714;23.732;2023-07-30T07:57:14;2.00;;;1.73;;
11328;SDS011;5719;42.714;23.732;2023-07-30T07:59:41;3.65;;;1.60;;
11328;SDS011;5719;42.714;23.732;2023-07-30T08:02:10;1.63;;;1.52;;
11328;SDS011;5719;42.714;23.732;2023-07-30T08:04:37;3.10;;;1.50;;
11328;SDS011;5719;42.714;23.732;2023-07-30T08:07:04;7.65;;;2.03;;
11328;SDS011;5719;42.714;23.732;2023-07-30T08:09:31;3.17;;;2.05;;
11328;SDS011;5719;42.714;23.732;2023-07-30T08:11:58;2.38;;;1.92;;
11328;SDS011;5719;42.714;23.732;2023-07-30T08:14:27;2.50;;;1.98;;
11328;SDS011;5719;42.714;23.732;2023-07-30T08:16:57;6.07;;;2.10;;
11328;SDS011;5719;42.714;23.732;2023-07-30T08:19:25;2.50;;;2.10;;
11328;SDS011;5719;42.714;23.732;2023-07-30T08:21:52;4.63;;;2.10;;
11328;SDS011;5719;42.714;23.732;2023-07-30T08:24:21;2.10;;;1.92;;
11328;SDS011;5719;42.714;23.732;2023-07-30T08:26:48;4.72;;;1.85;;
11328;SDS011;5719;42.714;23.732;2023-07-30T08:29:16;1.77;;;1.67;;
11328;SDS011;5719;42.714;23.732;2023-07-30T08:31:44;2.15;;;2.05;;
11328;SDS011;5719;42.714;23.732;2023-07-30T08:34:13;4.50;;;1.73;;
11328;SDS011;5719;42.714;23.732;2023-07-30T08:36:44;3.83;;;1.77;;
11328;SDS011;5719;42.714;23.732;2023-07-30T08:39:11;2.72;;;1.88;;
11328;SDS011;5719;42.714;23.732;2023-07-30T08:41:39;4.05;;;1.90;;
11328;SDS011;5719;42.714;23.732;2023-07-30T08:44:06;1.90;;;1.80;;
11328;SDS011;5719;42.714;23.732;2023-07-30T08:46:33;2.33;;;2.10;;
11328;SDS011;5719;42.714;23.732;2023-07-30T08:49:02;2.88;;;2.03;;
11328;SDS011;5719;42.714;23.732;2023-07-30T08:51:29;2.30;;;2.00;;
11328;SDS011;5719;42.714;23.732;2023-07-30T08:53:58;3.90;;;2.45;;
11328;SDS011;5719;42.714;23.732;2023-07-30T08:56:27;2.30;;;2.10;;
11328;SDS011;5719;42.714;23.732;2023-07-30T08:58:54;2.15;;;1.92;;
11328;SDS011;5719;42.714;23.732;2023-07-30T09:01:25;3.85;;;2.22;;
11328;SDS011;5719;42.714;23.732;2023-07-30T09:03:56;2.22;;;2.00;;
11328;SDS011;5719;42.714;23.732;2023-07-30T09:06:27;2.22;;;2.03;;
11328;SDS011;5719;42.714;23.732;2023-07-30T09:08:54;5.05;;;2.00;;
11328;SDS011;5719;42.714;23.732;2023-07-30T09:11:21;4.07;;;1.92;;
11328;SDS011;5719;42.714;23.732;2023-07-30T09:13:53;2.28;;;1.88;;
11328;SDS011;5719;42.714;23.732;2023-07-30T09:16:24;3.88;;;1.80;;
11328;SDS011;5719;42.714;23.732;2023-07-30T09:18:51;2.03;;;1.92;;
11328;SDS011;5719;42.714;23.732;2023-07-30T09:21:19;2.47;;;1.75;;
11328;SDS011;5719;42.714;23.732;2023-07-30T09:23:56;4.00;;;2.00;;
11328;SDS011;5719;42.714;23.732;2023-07-30T09:26:31;2.35;;;2.00;;
11328;SDS011;5719;42.714;23.732;2023-07-30T09:29:08;4.18;;;2.00;;
11328;SDS011;5719;42.714;23.732;2023-07-30T09:31:48;1.83;;;1.73;;
11328;SDS011;5719;42.714;23.732;2023-07-30T09:34:16;2.90;;;2.28;;
11328;SDS011;5719;42.714;23.732;2023-07-30T09:36:45;4.60;;;1.90;;
11328;SDS011;5719;42.714;23.732;2023-07-30T09:39:18;2.00;;;1.90;;
11328;SDS011;5719;42.714;23.732;2023-07-30T09:41:46;2.90;;;2.10;;
11328;SDS011;5719;42.714;23.732;2023-07-30T09:44:15;5.70;;;2.30;;
11328;SDS011;5719;42.714;23.732;2023-07-30T09:46:43;2.10;;;1.88;;
11328;SDS011;5719;42.714;23.732;2023-07-30T09:49:11;2.30;;;2.20;;
11328;SDS011;5719;42.714;23.732;2023-07-30T09:51:38;2.15;;;2.00;;
11328;SDS011;5719;42.714;23.732;2023-07-30T09:54:06;2.47;;;2.28;;
11328;SDS011;5719;42.714;23.732;2023-07-30T09:56:37;5.05;;;2.33;;
11328;SDS011;5719;42.714;23.732;2023-07-30T09:59:05;2.53;;;2.33;;
11328;SDS011;5719;42.714;23.732;2023-07-30T10:01:33;2.42;;;2.22;;
11328;SDS011;5719;42.714;23.732;2023-07-30T10:04:06;2.63;;;2.30;;
11328;SDS011;5719;42.714;23.732;2023-07-30T10:06:35;5.75;;;2.30;;
11328;SDS011;5719;42.714;23.732;2023-07-30T10:09:06;2.80;;;2.60;;
11328;SDS011;5719;42.714;23.732;2023-07-30T10:11:36;2.45;;;2.25;;
11328;SDS011;5719;42.714;23.732;2023-07-30T10:14:04;2.40;;;2.20;;
11328;SDS011;5719;42.714;23.732;2023-07-30T10:16:32;2.40;;;2.20;;
11328;SDS011;5719;42.714;23.732;2023-07-30T10:18:59;2.15;;;2.05;;
11328;SDS011;5719;42.714;23.732;2023-07-30T10:21:26;3.60;;;2.40;;
11328;SDS011;5719;42.714;23.732;2023-07-30T10:23:59;4.78;;;2.35;;
11328;SDS011;5719;42.714;23.732;2023-07-30T10:26:29;3.38;;;2.08;;
11328;SDS011;5719;42.714;23.732;2023-07-30T10:29:14;3.53;;;2.35;;
11328;SDS011;5719;42.714;23.732;2023-07-30T10:31:48;2.55;;;2.30;;
11328;SDS011;5719;42.714;23.732;2023-07-30T10:34:18;4.15;;;2.50;;
11328;SDS011;5719;42.714;23.732;2023-07-30T10:36:46;2.92;;;2.40;;
11328;SDS011;5719;42.714;23.732;2023-07-30T10:39:15;2.58;;;2.38;;
11328;SDS011;5719;42.714;23.732;2023-07-30T10:41:44;4.68;;;2.45;;
11328;SDS011;5719;42.714;23.732;2023-07-30T10:44:24;2.97;;;2.70;;
11328;SDS011;5719;42.714;23.732;2023-07-30T10:46:52;3.78;;;2.55;;
11328;SDS011;5719;42.714;23.732;2023-07-30T10:49:20;3.00;;;2.70;;
11328;SDS011;5719;42.714;23.732;2023-07-30T10:51:47;3.10;;;2.75;;
11328;SDS011;5719;42.714;23.732;2023-07-30T10:54:14;3.65;;;2.58;;
11328;SDS011;5719;42.714;23.732;2023-07-30T10:56:42;2.75;;;2.55;;
11328;SDS011;5719;42.714;23.732;2023-07-30T10:59:11;2.65;;;2.40;;
11328;SDS011;5719;42.714;23.732;2023-07-30T11:01:40;7.53;;;2.97;;
11328;SDS011;5719;42.714;23.732;2023-07-30T11:04:09;3.17;;;2.92;;
11328;SDS011;5719;42.714;23.732;2023-07-30T11:06:37;3.10;;;2.90;;
11328;SDS011;5719;42.714;23.732;2023-07-30T11:09:04;3.00;;;2.70;;
11328;SDS011;5719;42.714;23.732;2023-07-30T11:11:31;2.92;;;2.72;;
11328;SDS011;5719;42.714;23.732;2023-07-30T11:13:58;2.88;;;2.47;;
11328;SDS011;5719;42.714;23.732;2023-07-30T11:16:26;2.67;;;2.42;;
11328;SDS011;5719;42.714;23.732;2023-07-30T11:18:55;5.68;;;2.40;;
11328;SDS011;5719;42.714;23.732;2023-07-30T11:21:22;4.32;;;2.72;;
11328;SDS011;5719;42.714;23.732;2023-07-30T11:23:50;2.53;;;2.35;;
11328;SDS011;5719;42.714;23.732;2023-07-30T11:26:18;4.28;;;2.53;;
11328;SDS011;5719;42.714;23.732;2023-07-30T11:28:46;2.55;;;2.35;;
11328;SDS011;5719;42.714;23.732;2023-07-30T11:31:14;2.67;;;2.40;;
11328;SDS011;5719;42.714;23.732;2023-07-30T11:33:43;2.63;;;2.35;;
11328;SDS011;5719;42.714;23.732;2023-07-30T11:36:13;3.50;;;2.72;;
11328;SDS011;5719;42.714;23.732;2023-07-30T11:38:41;3.47;;;2.58;;
11328;SDS011;5719;42.714;23.732;2023-07-30T11:41:10;2.50;;;2.33;;
11328;SDS011;5719;42.714;23.732;2023-07-30T11:43:39;3.97;;;2.50;;
11328;SDS011;5719;42.714;23.732;2023-07-30T11:46:08;2.50;;;2.30;;
11328;SDS011;5719;42.714;23.732;2023-07-30T11:48:37;2.40;;;2.20;;
11328;SDS011;5719;42.714;23.732;2023-07-30T11:51:04;2.75;;;2.53;;
11328;SDS011;5719;42.714;23.732;2023-07-30T11:53:45;3.30;;;2.10;;
11328;SDS011;5719;42.714;23.732;2023-07-30T11:56:18;4.43;;;2.80;;
11328;SDS011;5719;42.714;23.732;2023-07-30T11:58:50;3.28;;;2.40;;
11328;SDS011;5719;42.714;23.732;2023-07-30T12:01:22;3.33;;;3.00;;
11328;SDS011;5719;42.714;23.732;2023-07-30T12:03:50;4.43;;;2.42;;
11328;SDS011;5719;42.714;23.732;2023-07-30T12:06:21;4.97;;;2.28;;
11328;SDS011;5719;42.714;23.732;2023-07-30T12:08:49;2.97;;;2.50;;
11328;SDS011;5719;42.714;23.732;2023-07-30T12:11:17;2.80;;;2.60;;
11328;SDS011;5719;42.714;23.732;2023-07-30T12:13:47;5.50;;;2.42;;
11328;SDS011;5719;42.714;23.732;2023-07-30T12:16:15;3.35;;;2.25;;
11328;SDS011;5719;42.714;23.732;2023-07-30T12:18:42;5.45;;;2.60;;
11328;SDS011;5719;42.714;23.732;2023-07-30T12:21:10;3.20;;;2.17;;
11328;SDS011;5719;42.714;23.732;2023-07-30T12:23:38;2.70;;;2.20;;
11328;SDS011;5719;42.714;23.732;2023-07-30T12:26:06;6.35;;;2.65;;
11328;SDS011;5719;42.714;23.732;2023-07-30T12:28:33;4.28;;;2.67;;
11328;SDS011;5719;42.714;23.732;2023-07-30T12:31:00;4.22;;;2.53;;
11328;SDS011;5719;42.714;23.732;2023-07-30T12:33:27;5.15;;;2.45;;
11328;SDS011;5719;42.714;23.732;2023-07-30T12:35:55;3.97;;;2.67;;
11328;SDS011;5719;42.714;23.732;2023-07-30T12:38:22;2.72;;;2.17;;
11328;SDS011;5719;42.714;23.732;2023-07-30T12:40:49;2.35;;;2.20;;
11328;SDS011;5719;42.714;23.732;2023-07-30T12:43:18;4.88;;;2.55;;
11328;SDS011;5719;42.714;23.732;2023-07-30T12:45:46;2.95;;;2.55;;
11328;SDS011;5719;42.714;23.732;2023-07-30T12:48:13;2.50;;;2.30;;
11328;SDS011;5719;42.714;23.732;2023-07-30T12:50:40;5.40;;;3.03;;
11328;SDS011;5719;42.714;23.732;2023-07-30T12:53:07;5.05;;;2.53;;
11328;SDS011;5719;42.714;23.732;2023-07-30T12:55:34;3.53;;;2.40;;
11328;SDS011;5719;42.714;23.732;2023-07-30T12:58:03;4.65;;;2.45;;
11328;SDS011;5719;42.714;23.732;2023-07-30T13:00:31;3.47;;;2.38;;
11328;SDS011;5719;42.714;23.732;2023-07-30T13:02:59;2.40;;;2.20;;
11328;SDS011;5719;42.714;23.732;2023-07-30T13:05:27;3.47;;;2.47;;
11328;SDS011;5719;42.714;23.732;2023-07-30T13:07:54;3.83;;;2.40;;
11328;SDS011;5719;42.714;23.732;2023-07-30T13:10:23;3.45;;;2.67;;
11328;SDS011;5719;42.714;23.732;2023-07-30T13:12:50;2.70;;;2.50;;
11328;SDS011;5719;42.714;23.732;2023-07-30T13:15:17;5.13;;;2.50;;
11328;SDS011;5719;42.714;23.732;2023-07-30T13:17:45;3.83;;;2.38;;
11328;SDS011;5719;42.714;23.732;2023-07-30T13:20:12;2.47;;;2.28;;
11328;SDS011;5719;42.714;23.732;2023-07-30T13:22:39;2.80;;;2.38;;
11328;SDS011;5719;42.714;23.732;2023-07-30T13:25:06;2.70;;;2.50;;
11328;SDS011;5719;42.714;23.732;2023-07-30T13:27:34;4.30;;;2.47;;
11328;SDS011;5719;42.714;23.732;2023-07-30T13:30:01;3.00;;;2.40;;
11328;SDS011;5719;42.714;23.732;2023-07-30T13:32:31;2.40;;;2.30;;
11328;SDS011;5719;42.714;23.732;2023-07-30T13:34:59;2.65;;;2.45;;
11328;SDS011;5719;42.714;23.732;2023-07-30T13:37:26;2.30;;;2.10;;
11328;SDS011;5719;42.714;23.732;2023-07-30T13:39:54;3.70;;;2.15;;
11328;SDS011;5719;42.714;23.732;2023-07-30T13:42:21;3.78;;;2.20;;
11328;SDS011;5719;42.714;23.732;2023-07-30T13:44:48;4.15;;;2.10;;
11328;SDS011;5719;42.714;23.732;2023-07-30T13:47:15;2.55;;;2.30;;
11328;SDS011;5719;42.714;23.732;2023-07-30T13:49:42;2.85;;;2.40;;
11328;SDS011;5719;42.714;23.732;2023-07-30T13:52:11;4.80;;;2.50;;
11328;SDS011;5719;42.714;23.732;2023-07-30T13:54:38;8.02;;;3.30;;
11328;SDS011;5719;42.714;23.732;2023-07-30T13:57:07;3.28;;;2.97;;
11328;SDS011;5719;42.714;23.732;2023-07-30T13:59:34;2.95;;;2.75;;
11328;SDS011;5719;42.714;23.732;2023-07-30T14:02:01;7.30;;;3.20;;
11328;SDS011;5719;42.714;23.732;2023-07-30T14:04:29;3.40;;;3.00;;
11328;SDS011;5719;42.714;23.732;2023-07-30T14:06:56;3.70;;;2.63;;
11328;SDS011;5719;42.714;23.732;2023-07-30T14:09:24;6.68;;;2.85;;
11328;SDS011;5719;42.714;23.732;2023-07-30T14:11:58;2.90;;;2.70;;
11328;SDS011;5719;42.714;23.732;2023-07-30T14:14:26;2.55;;;2.35;;
11328;SDS011;5719;42.714;23.732;2023-07-30T14:16:53;4.20;;;2.38;;
11328;SDS011;5719;42.714;23.732;2023-07-30T14:19:22;4.00;;;2.80;;
11328;SDS011;5719;42.714;23.732;2023-07-30T14:21:49;3.05;;;2.80;;
11328;SDS011;5719;42.714;23.732;2023-07-30T14:24:16;2.90;;;2.70;;
11328;SDS011;5719;42.714;23.732;2023-07-30T14:26:45;2.72;;;2.53;;
11328;SDS011;5719;42.714;23.732;2023-07-30T14:29:12;4.55;;;2.90;;
11328;SDS011;5719;42.714;23.732;2023-07-30T14:31:39;4.60;;;2.60;;
11328;SDS011;5719;42.714;23.732;2023-07-30T14:34:06;3.10;;;2.80;;
11328;SDS011;5719;42.714;23.732;2023-07-30T14:36:33;5.22;;;2.97;;
11328;SDS011;5719;42.714;23.732;2023-07-30T14:39:01;3.10;;;2.78;;
11328;SDS011;5719;42.714;23.732;2023-07-30T14:41:30;3.95;;;2.55;;
11328;SDS011;5719;42.714;23.732;2023-07-30T14:43:59;2.63;;;2.45;;
11328;SDS011;5719;42.714;23.732;2023-07-30T14:46:28;2.75;;;2.55;;
11328;SDS011;5719;42.714;23.732;2023-07-30T14:48:54;5.55;;;2.80;;
11328;SDS011;5719;42.714;23.732;2023-07-30T14:51:21;2.80;;;2.60;;